Huvudsida
METAR-TAF:

METAR-TAF

Flygplatser :

Skellefteå Airport

Skellefteå, Sverige

latitud: 64-38N, longitud: 021-05E, höjd: 49 m

Aktuellt väderrapport

Denna rapport gjordes för 39 minuter sedan, klockan 05:50 UTC
Vind 10 kt från väst
Temperatur 13°C
Fuktighet 58%
Tryck 1002 hPa
Sikt 10 km eller mer
Inga moln under 1 500 m eller inga cumulonimbus

METAR: ESNS 210550Z 27010KT CAVOK 13/05 Q1002

Tid: 08:29 (06:29 UTC)

Väderprognos

Denna rapport gjordes för 59 minuter sedan, klockan 05:30 UTC
Prognos gäller från 21 kl. 06 UTC till 21 kl. 15 UTC
Vind 10 kt från väst
Sikt 10 km eller mer
Inga moln under 1 500 m eller inga cumulonimbus
Blir
från 21 kl. 13 UTC till 21 kl. 15 UTC
Vind 6 kt från ost/sydost

TAF: ESNS 210530Z 2106/2115 27010KT CAVOK BECMG 2113/2115 12006KT

Aktuella väderrapporter och prognoser från 4000 flygplatser (METAR- och TAF-rapporter).

De tillgängliga stationerna syns som gula och röda prickar på kartan.

För musen över prickarna för att se namnen på stationerna.

Klicka sedan för att få väderrapporter och prognoser.

För att ändra kartan: Klicka på de gröna knapparna med ett svart kors på för att zooma in; den gröna knappen med ett streck på för att zooma ut; eller på de gröna pilarna för angränsande kartor.


METAR-TAF: